sensor_id;sensor_type;location;lat;lon;timestamp;P1;durP1;ratioP1;P2;durP2;ratioP2
13463;SDS011;6804;48.774;9.174;2023-12-22T00:00:32;2.33;;;1.10;;
13463;SDS011;6804;48.774;9.174;2023-12-22T00:03:04;1.73;;;0.73;;
13463;SDS011;6804;48.774;9.174;2023-12-22T00:05:36;2.80;;;1.13;;
13463;SDS011;6804;48.774;9.174;2023-12-22T00:08:07;3.83;;;1.40;;
13463;SDS011;6804;48.774;9.174;2023-12-22T00:10:34;2.57;;;1.03;;
13463;SDS011;6804;48.774;9.174;2023-12-22T00:13:02;2.30;;;1.10;;
13463;SDS011;6804;48.774;9.174;2023-12-22T00:15:34;3.17;;;0.90;;
13463;SDS011;6804;48.774;9.174;2023-12-22T00:18:05;2.80;;;1.10;;
13463;SDS011;6804;48.774;9.174;2023-12-22T00:20:33;4.40;;;1.20;;
13463;SDS011;6804;48.774;9.174;2023-12-22T00:23:03;3.17;;;1.20;;
13463;SDS011;6804;48.774;9.174;2023-12-22T00:25:36;4.90;;;1.50;;
13463;SDS011;6804;48.774;9.174;2023-12-22T00:30:53;2.57;;;1.30;;
13463;SDS011;6804;48.774;9.174;2023-12-22T00:33:29;4.07;;;1.30;;
13463;SDS011;6804;48.774;9.174;2023-12-22T00:36:00;6.47;;;1.50;;
13463;SDS011;6804;48.774;9.174;2023-12-22T00:38:29;4.70;;;1.33;;
13463;SDS011;6804;48.774;9.174;2023-12-22T00:40:57;2.43;;;1.10;;
13463;SDS011;6804;48.774;9.174;2023-12-22T00:43:26;5.23;;;1.10;;
13463;SDS011;6804;48.774;9.174;2023-12-22T00:45:57;3.77;;;1.20;;
13463;SDS011;6804;48.774;9.174;2023-12-22T00:48:27;3.63;;;1.10;;
13463;SDS011;6804;48.774;9.174;2023-12-22T00:50:55;3.87;;;1.10;;
13463;SDS011;6804;48.774;9.174;2023-12-22T00:53:27;2.10;;;0.97;;
13463;SDS011;6804;48.774;9.174;2023-12-22T00:56:00;4.57;;;1.57;;
13463;SDS011;6804;48.774;9.174;2023-12-22T00:58:28;1.83;;;0.90;;
13463;SDS011;6804;48.774;9.174;2023-12-22T01:00:56;3.23;;;1.20;;
13463;SDS011;6804;48.774;9.174;2023-12-22T01:03:26;2.53;;;1.10;;
13463;SDS011;6804;48.774;9.174;2023-12-22T01:05:56;3.30;;;1.13;;
13463;SDS011;6804;48.774;9.174;2023-12-22T01:08:29;4.87;;;1.10;;
13463;SDS011;6804;48.774;9.174;2023-12-22T01:10:57;5.00;;;1.40;;
13463;SDS011;6804;48.774;9.174;2023-12-22T01:13:28;4.80;;;1.60;;
13463;SDS011;6804;48.774;9.174;2023-12-22T01:15:58;3.83;;;1.10;;
13463;SDS011;6804;48.774;9.174;2023-12-22T01:18:27;4.27;;;1.60;;
13463;SDS011;6804;48.774;9.174;2023-12-22T01:20:55;3.90;;;1.30;;
13463;SDS011;6804;48.774;9.174;2023-12-22T01:23:29;3.27;;;1.40;;
13463;SDS011;6804;48.774;9.174;2023-12-22T01:25:56;3.47;;;1.30;;
13463;SDS011;6804;48.774;9.174;2023-12-22T01:28:28;3.53;;;1.50;;
13463;SDS011;6804;48.774;9.174;2023-12-22T01:31:01;2.80;;;1.27;;
13463;SDS011;6804;48.774;9.174;2023-12-22T01:33:31;1.77;;;1.03;;
13463;SDS011;6804;48.774;9.174;2023-12-22T01:35:59;3.30;;;1.00;;
13463;SDS011;6804;48.774;9.174;2023-12-22T01:38:31;4.83;;;1.37;;
13463;SDS011;6804;48.774;9.174;2023-12-22T01:40:58;6.47;;;1.40;;
13463;SDS011;6804;48.774;9.174;2023-12-22T01:43:28;4.27;;;1.20;;
13463;SDS011;6804;48.774;9.174;2023-12-22T01:45:56;3.87;;;1.40;;
13463;SDS011;6804;48.774;9.174;2023-12-22T01:48:29;3.17;;;0.97;;
13463;SDS011;6804;48.774;9.174;2023-12-22T01:50:57;2.63;;;1.03;;
13463;SDS011;6804;48.774;9.174;2023-12-22T01:53:28;3.90;;;1.20;;
13463;SDS011;6804;48.774;9.174;2023-12-22T01:56:02;3.60;;;1.10;;
13463;SDS011;6804;48.774;9.174;2023-12-22T02:01:20;1.43;;;0.60;;
13463;SDS011;6804;48.774;9.174;2023-12-22T02:03:49;1.13;;;0.70;;
13463;SDS011;6804;48.774;9.174;2023-12-22T02:06:19;2.63;;;0.90;;
13463;SDS011;6804;48.774;9.174;2023-12-22T02:08:51;1.37;;;0.67;;
13463;SDS011;6804;48.774;9.174;2023-12-22T02:11:20;1.67;;;0.80;;
13463;SDS011;6804;48.774;9.174;2023-12-22T02:13:50;2.67;;;0.70;;
13463;SDS011;6804;48.774;9.174;2023-12-22T02:19:15;2.50;;;0.80;;
13463;SDS011;6804;48.774;9.174;2023-12-22T02:22:12;1.97;;;0.90;;
13463;SDS011;6804;48.774;9.174;2023-12-22T02:24:45;3.27;;;0.90;;
13463;SDS011;6804;48.774;9.174;2023-12-22T02:27:21;2.33;;;0.77;;
13463;SDS011;6804;48.774;9.174;2023-12-22T02:30:02;1.27;;;0.63;;
13463;SDS011;6804;48.774;9.174;2023-12-22T02:32:37;2.50;;;0.70;;
13463;SDS011;6804;48.774;9.174;2023-12-22T02:35:13;1.83;;;0.90;;
13463;SDS011;6804;48.774;9.174;2023-12-22T02:37:44;1.30;;;0.87;;
13463;SDS011;6804;48.774;9.174;2023-12-22T02:40:15;3.67;;;0.80;;
13463;SDS011;6804;48.774;9.174;2023-12-22T02:42:46;3.67;;;1.30;;
13463;SDS011;6804;48.774;9.174;2023-12-22T02:45:19;3.07;;;1.03;;
13463;SDS011;6804;48.774;9.174;2023-12-22T02:47:49;3.03;;;1.27;;
13463;SDS011;6804;48.774;9.174;2023-12-22T02:50:16;2.47;;;1.10;;
13463;SDS011;6804;48.774;9.174;2023-12-22T02:52:44;2.47;;;1.00;;
13463;SDS011;6804;48.774;9.174;2023-12-22T02:55:12;3.30;;;1.30;;
13463;SDS011;6804;48.774;9.174;2023-12-22T02:57:44;2.03;;;0.70;;
13463;SDS011;6804;48.774;9.174;2023-12-22T03:00:14;2.70;;;0.93;;
13463;SDS011;6804;48.774;9.174;2023-12-22T03:02:44;3.13;;;1.00;;
13463;SDS011;6804;48.774;9.174;2023-12-22T03:05:14;2.60;;;1.00;;
13463;SDS011;6804;48.774;9.174;2023-12-22T03:07:43;2.17;;;1.03;;
13463;SDS011;6804;48.774;9.174;2023-12-22T03:10:13;4.43;;;2.00;;
13463;SDS011;6804;48.774;9.174;2023-12-22T03:12:41;3.83;;;1.27;;
13463;SDS011;6804;48.774;9.174;2023-12-22T03:15:13;3.70;;;1.00;;
13463;SDS011;6804;48.774;9.174;2023-12-22T03:20:28;2.33;;;1.33;;
13463;SDS011;6804;48.774;9.174;2023-12-22T03:22:56;4.37;;;1.10;;
13463;SDS011;6804;48.774;9.174;2023-12-22T03:25:26;4.50;;;1.20;;
13463;SDS011;6804;48.774;9.174;2023-12-22T03:30:44;2.83;;;1.17;;
13463;SDS011;6804;48.774;9.174;2023-12-22T03:33:12;3.33;;;1.10;;
13463;SDS011;6804;48.774;9.174;2023-12-22T03:35:42;2.77;;;1.00;;
13463;SDS011;6804;48.774;9.174;2023-12-22T03:38:13;4.23;;;1.30;;
13463;SDS011;6804;48.774;9.174;2023-12-22T03:40:47;2.47;;;1.07;;
13463;SDS011;6804;48.774;9.174;2023-12-22T03:46:05;2.73;;;1.13;;
13463;SDS011;6804;48.774;9.174;2023-12-22T03:48:32;3.33;;;1.10;;
13463;SDS011;6804;48.774;9.174;2023-12-22T03:51:00;3.07;;;0.90;;
13463;SDS011;6804;48.774;9.174;2023-12-22T03:53:28;4.43;;;1.17;;
13463;SDS011;6804;48.774;9.174;2023-12-22T03:55:56;3.03;;;1.07;;
13463;SDS011;6804;48.774;9.174;2023-12-22T03:58:26;3.23;;;0.97;;
13463;SDS011;6804;48.774;9.174;2023-12-22T04:00:55;1.43;;;0.90;;
13463;SDS011;6804;48.774;9.174;2023-12-22T04:03:24;2.93;;;0.97;;
13463;SDS011;6804;48.774;9.174;2023-12-22T04:05:52;4.53;;;1.00;;
13463;SDS011;6804;48.774;9.174;2023-12-22T04:08:20;5.23;;;1.30;;
13463;SDS011;6804;48.774;9.174;2023-12-22T04:10:51;3.20;;;1.17;;
13463;SDS011;6804;48.774;9.174;2023-12-22T04:13:19;4.23;;;1.30;;
13463;SDS011;6804;48.774;9.174;2023-12-22T04:15:49;4.47;;;1.43;;
13463;SDS011;6804;48.774;9.174;2023-12-22T04:18:17;3.30;;;1.00;;
13463;SDS011;6804;48.774;9.174;2023-12-22T04:20:46;6.77;;;1.40;;
13463;SDS011;6804;48.774;9.174;2023-12-22T04:23:17;3.77;;;1.30;;
13463;SDS011;6804;48.774;9.174;2023-12-22T04:28:15;3.03;;;1.13;;
13463;SDS011;6804;48.774;9.174;2023-12-22T04:30:43;3.47;;;1.30;;
13463;SDS011;6804;48.774;9.174;2023-12-22T04:33:11;3.83;;;1.27;;
13463;SDS011;6804;48.774;9.174;2023-12-22T04:35:49;3.03;;;1.00;;
13463;SDS011;6804;48.774;9.174;2023-12-22T04:38:17;3.40;;;1.23;;
13463;SDS011;6804;48.774;9.174;2023-12-22T04:40:44;3.30;;;1.30;;
13463;SDS011;6804;48.774;9.174;2023-12-22T04:43:16;4.10;;;1.20;;
13463;SDS011;6804;48.774;9.174;2023-12-22T04:45:44;4.10;;;1.10;;
13463;SDS011;6804;48.774;9.174;2023-12-22T04:48:13;2.93;;;0.97;;
13463;SDS011;6804;48.774;9.174;2023-12-22T04:50:45;3.90;;;1.10;;
13463;SDS011;6804;48.774;9.174;2023-12-22T04:53:14;3.17;;;0.87;;
13463;SDS011;6804;48.774;9.174;2023-12-22T04:55:45;3.40;;;1.20;;
13463;SDS011;6804;48.774;9.174;2023-12-22T04:58:15;1.47;;;0.70;;
13463;SDS011;6804;48.774;9.174;2023-12-22T05:00:48;4.10;;;1.10;;
13463;SDS011;6804;48.774;9.174;2023-12-22T05:06:07;2.70;;;0.90;;
13463;SDS011;6804;48.774;9.174;2023-12-22T05:08:36;3.50;;;0.97;;
13463;SDS011;6804;48.774;9.174;2023-12-22T05:11:04;1.87;;;0.80;;
13463;SDS011;6804;48.774;9.174;2023-12-22T05:13:37;4.03;;;1.17;;
13463;SDS011;6804;48.774;9.174;2023-12-22T05:16:07;2.70;;;1.07;;
13463;SDS011;6804;48.774;9.174;2023-12-22T05:18:35;3.57;;;1.53;;
13463;SDS011;6804;48.774;9.174;2023-12-22T05:21:06;4.93;;;1.60;;
13463;SDS011;6804;48.774;9.174;2023-12-22T05:23:38;2.57;;;1.13;;
13463;SDS011;6804;48.774;9.174;2023-12-22T05:28:55;3.77;;;1.40;;
13463;SDS011;6804;48.774;9.174;2023-12-22T05:31:23;3.67;;;1.00;;
13463;SDS011;6804;48.774;9.174;2023-12-22T05:36:38;5.23;;;1.60;;
13463;SDS011;6804;48.774;9.174;2023-12-22T05:39:09;4.00;;;1.50;;
13463;SDS011;6804;48.774;9.174;2023-12-22T05:41:39;5.30;;;1.80;;
13463;SDS011;6804;48.774;9.174;2023-12-22T05:44:07;7.40;;;2.00;;
13463;SDS011;6804;48.774;9.174;2023-12-22T05:49:42;4.83;;;2.10;;
13463;SDS011;6804;48.774;9.174;2023-12-22T05:52:13;3.97;;;1.50;;
13463;SDS011;6804;48.774;9.174;2023-12-22T05:54:44;5.97;;;1.90;;
13463;SDS011;6804;48.774;9.174;2023-12-22T05:57:12;4.80;;;1.53;;
13463;SDS011;6804;48.774;9.174;2023-12-22T05:59:40;5.60;;;1.87;;
13463;SDS011;6804;48.774;9.174;2023-12-22T06:02:09;5.73;;;1.97;;
13463;SDS011;6804;48.774;9.174;2023-12-22T06:04:38;5.80;;;1.80;;
13463;SDS011;6804;48.774;9.174;2023-12-22T06:07:09;6.77;;;1.63;;
13463;SDS011;6804;48.774;9.174;2023-12-22T06:12:27;5.20;;;1.60;;
13463;SDS011;6804;48.774;9.174;2023-12-22T06:15:01;4.57;;;1.30;;
13463;SDS011;6804;48.774;9.174;2023-12-22T06:17:28;5.57;;;1.47;;
13463;SDS011;6804;48.774;9.174;2023-12-22T06:19:57;4.83;;;1.83;;
13463;SDS011;6804;48.774;9.174;2023-12-22T06:22:25;5.47;;;1.67;;
13463;SDS011;6804;48.774;9.174;2023-12-22T06:24:55;4.60;;;1.53;;
13463;SDS011;6804;48.774;9.174;2023-12-22T06:27:29;5.87;;;1.43;;
13463;SDS011;6804;48.774;9.174;2023-12-22T06:29:57;5.00;;;1.63;;
13463;SDS011;6804;48.774;9.174;2023-12-22T06:32:28;4.10;;;1.27;;
13463;SDS011;6804;48.774;9.174;2023-12-22T06:34:55;4.10;;;1.60;;
13463;SDS011;6804;48.774;9.174;2023-12-22T06:37:30;3.87;;;1.43;;
13463;SDS011;6804;48.774;9.174;2023-12-22T06:39:59;5.80;;;1.60;;
13463;SDS011;6804;48.774;9.174;2023-12-22T06:42:29;5.97;;;1.80;;
13463;SDS011;6804;48.774;9.174;2023-12-22T06:45:00;5.07;;;1.63;;
13463;SDS011;6804;48.774;9.174;2023-12-22T06:47:29;5.50;;;1.57;;
13463;SDS011;6804;48.774;9.174;2023-12-22T06:49:58;5.23;;;1.47;;
13463;SDS011;6804;48.774;9.174;2023-12-22T06:52:26;4.13;;;1.50;;
13463;SDS011;6804;48.774;9.174;2023-12-22T06:55:00;3.67;;;1.30;;
13463;SDS011;6804;48.774;9.174;2023-12-22T07:00:19;3.93;;;1.37;;
13463;SDS011;6804;48.774;9.174;2023-12-22T07:05:33;7.60;;;1.77;;
13463;SDS011;6804;48.774;9.174;2023-12-22T07:08:03;5.47;;;1.50;;
13463;SDS011;6804;48.774;9.174;2023-12-22T07:10:34;6.00;;;2.00;;
13463;SDS011;6804;48.774;9.174;2023-12-22T07:13:04;2.40;;;1.30;;
13463;SDS011;6804;48.774;9.174;2023-12-22T07:15:35;3.70;;;1.50;;
13463;SDS011;6804;48.774;9.174;2023-12-22T07:20:55;4.33;;;1.57;;
13463;SDS011;6804;48.774;9.174;2023-12-22T07:23:31;4.97;;;1.37;;
13463;SDS011;6804;48.774;9.174;2023-12-22T07:26:01;6.30;;;1.57;;
13463;SDS011;6804;48.774;9.174;2023-12-22T07:28:34;4.50;;;1.40;;
13463;SDS011;6804;48.774;9.174;2023-12-22T07:31:01;5.97;;;1.63;;
13463;SDS011;6804;48.774;9.174;2023-12-22T07:33:31;4.93;;;1.73;;
13463;SDS011;6804;48.774;9.174;2023-12-22T07:36:00;4.73;;;1.43;;
13463;SDS011;6804;48.774;9.174;2023-12-22T07:38:31;3.53;;;1.37;;
13463;SDS011;6804;48.774;9.174;2023-12-22T07:40:59;3.93;;;1.43;;
13463;SDS011;6804;48.774;9.174;2023-12-22T07:43:27;4.77;;;2.00;;
13463;SDS011;6804;48.774;9.174;2023-12-22T07:45:59;6.73;;;1.57;;
13463;SDS011;6804;48.774;9.174;2023-12-22T07:48:29;2.63;;;1.30;;
13463;SDS011;6804;48.774;9.174;2023-12-22T07:51:00;4.33;;;1.20;;
13463;SDS011;6804;48.774;9.174;2023-12-22T07:53:29;5.40;;;1.60;;
13463;SDS011;6804;48.774;9.174;2023-12-22T07:55:57;4.73;;;1.50;;
13463;SDS011;6804;48.774;9.174;2023-12-22T07:58:29;5.10;;;1.50;;
13463;SDS011;6804;48.774;9.174;2023-12-22T08:00:59;5.27;;;1.13;;
13463;SDS011;6804;48.774;9.174;2023-12-22T08:03:29;3.50;;;1.20;;
13463;SDS011;6804;48.774;9.174;2023-12-22T08:05:58;5.47;;;1.43;;
13463;SDS011;6804;48.774;9.174;2023-12-22T08:08:31;4.40;;;1.47;;
13463;SDS011;6804;48.774;9.174;2023-12-22T08:11:00;4.37;;;1.13;;
13463;SDS011;6804;48.774;9.174;2023-12-22T08:13:31;5.73;;;1.77;;
13463;SDS011;6804;48.774;9.174;2023-12-22T08:16:01;3.80;;;1.40;;
13463;SDS011;6804;48.774;9.174;2023-12-22T08:21:21;4.73;;;1.27;;
13463;SDS011;6804;48.774;9.174;2023-12-22T08:23:52;2.90;;;1.47;;
13463;SDS011;6804;48.774;9.174;2023-12-22T08:29:09;7.67;;;1.87;;
13463;SDS011;6804;48.774;9.174;2023-12-22T08:31:39;4.47;;;1.40;;
13463;SDS011;6804;48.774;9.174;2023-12-22T08:37:01;4.43;;;1.60;;
13463;SDS011;6804;48.774;9.174;2023-12-22T08:42:23;7.63;;;2.20;;
13463;SDS011;6804;48.774;9.174;2023-12-22T08:44:54;7.07;;;2.00;;
13463;SDS011;6804;48.774;9.174;2023-12-22T08:47:26;6.30;;;1.80;;
13463;SDS011;6804;48.774;9.174;2023-12-22T08:49:56;8.80;;;2.20;;
13463;SDS011;6804;48.774;9.174;2023-12-22T08:52:24;4.57;;;1.73;;
13463;SDS011;6804;48.774;9.174;2023-12-22T08:57:41;5.20;;;1.90;;
13463;SDS011;6804;48.774;9.174;2023-12-22T09:00:10;7.83;;;2.00;;
13463;SDS011;6804;48.774;9.174;2023-12-22T09:02:42;6.20;;;2.00;;
13463;SDS011;6804;48.774;9.174;2023-12-22T09:05:11;8.20;;;2.20;;
13463;SDS011;6804;48.774;9.174;2023-12-22T09:07:44;7.37;;;1.70;;
13463;SDS011;6804;48.774;9.174;2023-12-22T09:10:12;9.40;;;2.67;;
13463;SDS011;6804;48.774;9.174;2023-12-22T09:12:44;8.30;;;2.27;;
13463;SDS011;6804;48.774;9.174;2023-12-22T09:15:12;6.90;;;2.43;;
13463;SDS011;6804;48.774;9.174;2023-12-22T09:17:46;6.93;;;2.10;;
13463;SDS011;6804;48.774;9.174;2023-12-22T09:20:13;8.93;;;2.23;;
13463;SDS011;6804;48.774;9.174;2023-12-22T09:22:44;7.10;;;2.23;;
13463;SDS011;6804;48.774;9.174;2023-12-22T09:25:13;10.30;;;2.73;;
13463;SDS011;6804;48.774;9.174;2023-12-22T09:27:41;6.60;;;2.17;;
13463;SDS011;6804;48.774;9.174;2023-12-22T09:30:12;6.23;;;2.10;;
13463;SDS011;6804;48.774;9.174;2023-12-22T09:32:43;7.00;;;2.13;;
13463;SDS011;6804;48.774;9.174;2023-12-22T09:38:05;8.03;;;2.40;;
13463;SDS011;6804;48.774;9.174;2023-12-22T09:40:33;11.10;;;2.63;;
13463;SDS011;6804;48.774;9.174;2023-12-22T09:43:02;7.67;;;2.90;;
13463;SDS011;6804;48.774;9.174;2023-12-22T09:45:31;7.17;;;2.40;;
13463;SDS011;6804;48.774;9.174;2023-12-22T09:48:06;10.77;;;2.37;;
13463;SDS011;6804;48.774;9.174;2023-12-22T09:50:36;8.00;;;2.53;;
13463;SDS011;6804;48.774;9.174;2023-12-22T09:53:05;8.43;;;2.50;;
13463;SDS011;6804;48.774;9.174;2023-12-22T09:55:36;9.73;;;2.60;;
13463;SDS011;6804;48.774;9.174;2023-12-22T09:58:07;11.20;;;2.83;;
13463;SDS011;6804;48.774;9.174;2023-12-22T10:00:39;8.70;;;2.47;;
13463;SDS011;6804;48.774;9.174;2023-12-22T10:03:12;10.70;;;2.57;;
13463;SDS011;6804;48.774;9.174;2023-12-22T10:05:43;10.03;;;2.50;;
13463;SDS011;6804;48.774;9.174;2023-12-22T10:08:12;10.73;;;2.93;;
13463;SDS011;6804;48.774;9.174;2023-12-22T10:10:41;11.57;;;2.80;;
13463;SDS011;6804;48.774;9.174;2023-12-22T10:13:26;8.23;;;2.30;;
13463;SDS011;6804;48.774;9.174;2023-12-22T10:15:56;9.30;;;2.43;;
13463;SDS011;6804;48.774;9.174;2023-12-22T10:18:26;10.87;;;3.20;;
13463;SDS011;6804;48.774;9.174;2023-12-22T10:20:54;8.53;;;2.20;;
13463;SDS011;6804;48.774;9.174;2023-12-22T10:23:22;7.57;;;2.40;;
13463;SDS011;6804;48.774;9.174;2023-12-22T10:25:57;7.67;;;2.37;;
13463;SDS011;6804;48.774;9.174;2023-12-22T10:28:27;11.17;;;3.23;;
13463;SDS011;6804;48.774;9.174;2023-12-22T10:30:55;10.47;;;2.40;;
13463;SDS011;6804;48.774;9.174;2023-12-22T10:33:32;10.10;;;2.80;;
13463;SDS011;6804;48.774;9.174;2023-12-22T10:36:01;9.07;;;3.07;;
13463;SDS011;6804;48.774;9.174;2023-12-22T10:38:37;8.40;;;2.37;;
13463;SDS011;6804;48.774;9.174;2023-12-22T10:41:08;10.17;;;2.60;;
13463;SDS011;6804;48.774;9.174;2023-12-22T10:43:38;7.20;;;2.33;;
13463;SDS011;6804;48.774;9.174;2023-12-22T10:46:07;6.50;;;1.83;;
13463;SDS011;6804;48.774;9.174;2023-12-22T10:48:38;11.70;;;2.43;;
13463;SDS011;6804;48.774;9.174;2023-12-22T10:51:08;9.53;;;2.63;;
13463;SDS011;6804;48.774;9.174;2023-12-22T10:53:40;7.13;;;2.13;;
13463;SDS011;6804;48.774;9.174;2023-12-22T10:56:11;6.57;;;2.33;;
13463;SDS011;6804;48.774;9.174;2023-12-22T10:58:45;8.50;;;2.40;;
13463;SDS011;6804;48.774;9.174;2023-12-22T11:01:15;6.70;;;2.30;;
13463;SDS011;6804;48.774;9.174;2023-12-22T11:03:47;6.47;;;1.60;;
13463;SDS011;6804;48.774;9.174;2023-12-22T11:06:17;6.53;;;1.90;;
13463;SDS011;6804;48.774;9.174;2023-12-22T11:08:48;6.90;;;2.20;;
13463;SDS011;6804;48.774;9.174;2023-12-22T11:11:25;5.03;;;1.93;;
13463;SDS011;6804;48.774;9.174;2023-12-22T11:13:56;3.67;;;1.70;;
13463;SDS011;6804;48.774;9.174;2023-12-22T11:16:29;5.20;;;1.57;;
13463;SDS011;6804;48.774;9.174;2023-12-22T11:19:01;2.63;;;1.40;;
13463;SDS011;6804;48.774;9.174;2023-12-22T11:21:37;6.97;;;1.80;;
13463;SDS011;6804;48.774;9.174;2023-12-22T11:24:07;3.40;;;1.50;;
13463;SDS011;6804;48.774;9.174;2023-12-22T11:26:38;4.03;;;1.30;;
13463;SDS011;6804;48.774;9.174;2023-12-22T11:29:08;4.23;;;1.27;;
13463;SDS011;6804;48.774;9.174;2023-12-22T11:31:37;4.50;;;1.33;;
13463;SDS011;6804;48.774;9.174;2023-12-22T11:34:10;3.93;;;1.53;;
13463;SDS011;6804;48.774;9.174;2023-12-22T11:36:42;3.00;;;1.40;;
13463;SDS011;6804;48.774;9.174;2023-12-22T11:39:17;4.03;;;1.30;;
13463;SDS011;6804;48.774;9.174;2023-12-22T11:41:48;3.53;;;1.10;;
13463;SDS011;6804;48.774;9.174;2023-12-22T11:44:22;4.80;;;1.40;;
13463;SDS011;6804;48.774;9.174;2023-12-22T11:47:07;4.77;;;1.10;;
13463;SDS011;6804;48.774;9.174;2023-12-22T11:49:40;2.70;;;1.30;;
13463;SDS011;6804;48.774;9.174;2023-12-22T11:52:13;2.50;;;1.20;;
13463;SDS011;6804;48.774;9.174;2023-12-22T11:54:47;3.80;;;1.30;;
13463;SDS011;6804;48.774;9.174;2023-12-22T12:00:09;3.50;;;1.20;;
13463;SDS011;6804;48.774;9.174;2023-12-22T12:03:03;3.33;;;1.43;;
13463;SDS011;6804;48.774;9.174;2023-12-22T12:05:36;3.77;;;1.50;;
13463;SDS011;6804;48.774;9.174;2023-12-22T12:08:06;2.43;;;1.30;;
13463;SDS011;6804;48.774;9.174;2023-12-22T12:10:53;3.03;;;1.47;;
13463;SDS011;6804;48.774;9.174;2023-12-22T12:13:27;1.37;;;0.80;;
13463;SDS011;6804;48.774;9.174;2023-12-22T12:15:58;2.57;;;1.00;;
13463;SDS011;6804;48.774;9.174;2023-12-22T12:18:28;2.27;;;0.97;;
13463;SDS011;6804;48.774;9.174;2023-12-22T12:21:03;2.53;;;1.40;;
13463;SDS011;6804;48.774;9.174;2023-12-22T12:23:34;2.90;;;1.40;;
13463;SDS011;6804;48.774;9.174;2023-12-22T12:26:03;3.10;;;1.43;;
13463;SDS011;6804;48.774;9.174;2023-12-22T12:28:35;3.00;;;1.40;;
13463;SDS011;6804;48.774;9.174;2023-12-22T12:31:14;3.77;;;1.30;;
13463;SDS011;6804;48.774;9.174;2023-12-22T12:33:42;2.27;;;1.10;;
13463;SDS011;6804;48.774;9.174;2023-12-22T12:36:13;4.87;;;1.43;;
13463;SDS011;6804;48.774;9.174;2023-12-22T12:38:44;1.53;;;1.00;;
13463;SDS011;6804;48.774;9.174;2023-12-22T12:41:28;1.00;;;0.73;;
13463;SDS011;6804;48.774;9.174;2023-12-22T12:44:01;1.67;;;0.90;;
13463;SDS011;6804;48.774;9.174;2023-12-22T12:46:40;2.50;;;1.10;;
13463;SDS011;6804;48.774;9.174;2023-12-22T12:49:10;4.03;;;1.10;;
13463;SDS011;6804;48.774;9.174;2023-12-22T12:51:42;2.17;;;1.17;;
13463;SDS011;6804;48.774;9.174;2023-12-22T12:54:14;5.73;;;2.70;;
13463;SDS011;6804;48.774;9.174;2023-12-22T12:56:46;7.03;;;4.30;;
13463;SDS011;6804;48.774;9.174;2023-12-22T12:59:20;5.50;;;2.40;;
13463;SDS011;6804;48.774;9.174;2023-12-22T13:01:50;2.27;;;1.70;;
13463;SDS011;6804;48.774;9.174;2023-12-22T13:04:18;4.77;;;3.23;;
13463;SDS011;6804;48.774;9.174;2023-12-22T13:06:49;8.53;;;4.47;;
13463;SDS011;6804;48.774;9.174;2023-12-22T13:09:30;2.90;;;1.70;;
13463;SDS011;6804;48.774;9.174;2023-12-22T13:11:59;2.43;;;1.33;;
13463;SDS011;6804;48.774;9.174;2023-12-22T13:14:30;1.83;;;1.00;;
13463;SDS011;6804;48.774;9.174;2023-12-22T13:17:01;1.67;;;1.20;;
13463;SDS011;6804;48.774;9.174;2023-12-22T13:19:32;2.93;;;1.10;;
13463;SDS011;6804;48.774;9.174;2023-12-22T13:22:04;3.00;;;1.00;;
13463;SDS011;6804;48.774;9.174;2023-12-22T13:24:40;1.57;;;1.07;;
13463;SDS011;6804;48.774;9.174;2023-12-22T13:27:08;2.17;;;1.20;;
13463;SDS011;6804;48.774;9.174;2023-12-22T13:29:43;2.10;;;1.37;;
13463;SDS011;6804;48.774;9.174;2023-12-22T13:32:20;1.50;;;0.83;;
13463;SDS011;6804;48.774;9.174;2023-12-22T13:34:50;1.17;;;0.60;;
13463;SDS011;6804;48.774;9.174;2023-12-22T13:37:20;1.37;;;1.27;;
13463;SDS011;6804;48.774;9.174;2023-12-22T13:39:50;0.87;;;0.60;;
13463;SDS011;6804;48.774;9.174;2023-12-22T13:42:19;2.60;;;1.40;;
13463;SDS011;6804;48.774;9.174;2023-12-22T13:44:48;2.20;;;0.90;;
13463;SDS011;6804;48.774;9.174;2023-12-22T13:47:21;1.00;;;0.87;;
13463;SDS011;6804;48.774;9.174;2023-12-22T13:49:49;2.63;;;1.67;;
13463;SDS011;6804;48.774;9.174;2023-12-22T13:52:31;1.97;;;1.13;;
13463;SDS011;6804;48.774;9.174;2023-12-22T13:55:00;1.00;;;0.60;;
13463;SDS011;6804;48.774;9.174;2023-12-22T13:57:29;2.40;;;0.60;;
13463;SDS011;6804;48.774;9.174;2023-12-22T13:59:57;1.43;;;0.70;;
13463;SDS011;6804;48.774;9.174;2023-12-22T14:02:30;2.20;;;1.00;;
13463;SDS011;6804;48.774;9.174;2023-12-22T14:04:58;6.30;;;3.57;;
13463;SDS011;6804;48.774;9.174;2023-12-22T14:07:29;1.33;;;0.80;;
13463;SDS011;6804;48.774;9.174;2023-12-22T14:10:04;0.57;;;0.57;;
13463;SDS011;6804;48.774;9.174;2023-12-22T14:12:35;1.10;;;0.70;;
13463;SDS011;6804;48.774;9.174;2023-12-22T14:15:06;1.13;;;0.83;;
13463;SDS011;6804;48.774;9.174;2023-12-22T14:17:36;0.97;;;0.70;;
13463;SDS011;6804;48.774;9.174;2023-12-22T14:20:10;1.53;;;1.00;;
13463;SDS011;6804;48.774;9.174;2023-12-22T14:22:40;1.73;;;1.07;;
13463;SDS011;6804;48.774;9.174;2023-12-22T14:25:08;1.47;;;1.13;;
13463;SDS011;6804;48.774;9.174;2023-12-22T14:27:40;1.77;;;1.00;;
13463;SDS011;6804;48.774;9.174;2023-12-22T14:30:09;0.93;;;0.87;;
13463;SDS011;6804;48.774;9.174;2023-12-22T14:32:39;2.60;;;1.20;;
13463;SDS011;6804;48.774;9.174;2023-12-22T14:35:12;2.17;;;1.30;;
13463;SDS011;6804;48.774;9.174;2023-12-22T14:37:42;1.93;;;1.03;;
13463;SDS011;6804;48.774;9.174;2023-12-22T14:40:12;1.13;;;0.70;;
13463;SDS011;6804;48.774;9.174;2023-12-22T14:42:40;1.00;;;0.90;;
13463;SDS011;6804;48.774;9.174;2023-12-22T14:45:09;1.30;;;0.90;;
13463;SDS011;6804;48.774;9.174;2023-12-22T14:47:43;0.77;;;0.77;;
13463;SDS011;6804;48.774;9.174;2023-12-22T14:50:11;1.43;;;0.77;;
13463;SDS011;6804;48.774;9.174;2023-12-22T14:52:42;1.50;;;1.00;;
13463;SDS011;6804;48.774;9.174;2023-12-22T14:55:13;1.00;;;0.80;;
13463;SDS011;6804;48.774;9.174;2023-12-22T14:57:42;1.57;;;1.00;;
13463;SDS011;6804;48.774;9.174;2023-12-22T15:00:12;0.73;;;0.60;;
13463;SDS011;6804;48.774;9.174;2023-12-22T15:02:42;0.87;;;0.70;;
13463;SDS011;6804;48.774;9.174;2023-12-22T15:05:11;0.93;;;0.83;;
13463;SDS011;6804;48.774;9.174;2023-12-22T15:07:40;1.20;;;0.80;;
13463;SDS011;6804;48.774;9.174;2023-12-22T15:10:10;0.80;;;0.63;;
13463;SDS011;6804;48.774;9.174;2023-12-22T15:12:39;0.90;;;0.60;;
13463;SDS011;6804;48.774;9.174;2023-12-22T15:15:13;1.07;;;0.80;;
13463;SDS011;6804;48.774;9.174;2023-12-22T15:17:42;0.73;;;0.60;;
13463;SDS011;6804;48.774;9.174;2023-12-22T15:20:11;0.90;;;0.70;;
13463;SDS011;6804;48.774;9.174;2023-12-22T15:22:39;0.67;;;0.60;;
13463;SDS011;6804;48.774;9.174;2023-12-22T15:25:11;1.00;;;0.70;;
13463;SDS011;6804;48.774;9.174;2023-12-22T15:27:40;0.60;;;0.60;;
13463;SDS011;6804;48.774;9.174;2023-12-22T15:30:10;0.40;;;0.40;;
13463;SDS011;6804;48.774;9.174;2023-12-22T15:32:39;1.10;;;0.70;;
13463;SDS011;6804;48.774;9.174;2023-12-22T15:35:09;0.53;;;0.47;;
13463;SDS011;6804;48.774;9.174;2023-12-22T15:37:39;0.90;;;0.70;;
13463;SDS011;6804;48.774;9.174;2023-12-22T15:40:14;1.20;;;0.80;;
13463;SDS011;6804;48.774;9.174;2023-12-22T15:42:44;1.63;;;0.77;;
13463;SDS011;6804;48.774;9.174;2023-12-22T15:48:01;1.43;;;0.83;;
13463;SDS011;6804;48.774;9.174;2023-12-22T15:50:31;1.30;;;0.70;;
13463;SDS011;6804;48.774;9.174;2023-12-22T15:53:03;1.70;;;1.23;;
13463;SDS011;6804;48.774;9.174;2023-12-22T15:55:33;1.43;;;0.83;;
13463;SDS011;6804;48.774;9.174;2023-12-22T16:00:50;2.30;;;0.97;;
13463;SDS011;6804;48.774;9.174;2023-12-22T16:03:18;1.03;;;0.90;;
13463;SDS011;6804;48.774;9.174;2023-12-22T16:05:48;1.47;;;1.00;;
13463;SDS011;6804;48.774;9.174;2023-12-22T16:08:17;1.20;;;0.80;;
13463;SDS011;6804;48.774;9.174;2023-12-22T16:10:46;1.60;;;1.00;;
13463;SDS011;6804;48.774;9.174;2023-12-22T16:13:18;1.03;;;0.60;;
13463;SDS011;6804;48.774;9.174;2023-12-22T16:15:49;1.00;;;0.67;;
13463;SDS011;6804;48.774;9.174;2023-12-22T16:18:17;2.13;;;1.00;;
13463;SDS011;6804;48.774;9.174;2023-12-22T16:20:45;1.00;;;0.73;;
13463;SDS011;6804;48.774;9.174;2023-12-22T16:23:16;0.53;;;0.50;;
13463;SDS011;6804;48.774;9.174;2023-12-22T16:25:49;1.53;;;0.97;;
13463;SDS011;6804;48.774;9.174;2023-12-22T16:28:17;1.90;;;1.23;;